createdAt,value
2023-05-03T00:04:42.333Z,100710.17
2023-05-03T00:14:46.402Z,100710.45
2023-05-03T00:24:52.042Z,100711.98
2023-05-03T00:34:57.567Z,100715.26
2023-05-03T00:45:41.785Z,100714.13
2023-05-03T00:55:45.891Z,100717.95
2023-05-03T01:06:22.169Z,100717.33
2023-05-03T01:16:41.094Z,100716.93
2023-05-03T01:26:44.734Z,100717.70
2023-05-03T01:36:50.975Z,100717.92
2023-05-03T01:46:55.007Z,100722.65
2023-05-03T01:57:00.433Z,100723.73
2023-05-03T02:08:04.857Z,100717.09
2023-05-03T02:18:11.483Z,100719.43
2023-05-03T02:28:15.227Z,100725.94
2023-05-03T02:38:19.202Z,100729.38
2023-05-03T02:49:04.880Z,100736.92
2023-05-03T02:59:13.534Z,100752.11
2023-05-03T03:09:17.963Z,100766.78
2023-05-03T03:20:22.904Z,100773.14
2023-05-03T03:30:26.720Z,100773.19
2023-05-03T03:40:46.181Z,100774.29
2023-05-03T03:51:33.084Z,100779.30
2023-05-03T04:02:37.281Z,100789.30
2023-05-03T04:12:42.556Z,100786.44
2023-05-03T04:22:46.567Z,100792.47
2023-05-03T04:32:54.692Z,100789.60
2023-05-03T04:43:00.268Z,100790.10
2023-05-03T04:53:04.751Z,100788.05
2023-05-03T05:03:12.080Z,100788.80
2023-05-03T05:13:18.014Z,100801.98
2023-05-03T05:23:22.217Z,100807.89
2023-05-03T05:33:50.047Z,100820.58
2023-05-03T05:44:35.019Z,100831.20
2023-05-03T05:54:41.939Z,100836.98
2023-05-03T06:04:51.605Z,100845.04
2023-05-03T06:26:07.120Z,100864.23
2023-05-03T06:36:12.069Z,100868.39
2023-05-03T06:47:16.411Z,100874.10
2023-05-03T06:57:20.177Z,100875.50
2023-05-03T07:07:25.511Z,100873.23
2023-05-03T07:17:29.265Z,100873.34
2023-05-03T07:27:53.225Z,100872.80
2023-05-03T07:38:02.028Z,100872.13
2023-05-03T07:48:06.815Z,100870.98
2023-05-03T07:58:12.485Z,100875.59
2023-05-03T08:08:16.500Z,100882.72
2023-05-03T08:18:23.871Z,100875.54
2023-05-03T08:28:28.061Z,100874.14
2023-05-03T08:38:35.042Z,100881.06
2023-05-03T08:48:52.792Z,100888.38
2023-05-03T08:59:28.868Z,100892.27
2023-05-03T09:09:35.577Z,100892.20
2023-05-03T09:19:55.945Z,100904.53
2023-05-03T09:30:18.652Z,100903.56
2023-05-03T09:40:30.801Z,100903.31
2023-05-03T09:50:39.525Z,100898.36
2023-05-03T10:01:43.907Z,100908.48
2023-05-03T10:11:59.302Z,100899.81
2023-05-03T10:22:02.926Z,100897.56
2023-05-03T10:32:35.604Z,100894.57
2023-05-03T10:43:06.795Z,100895.73
2023-05-03T10:53:43.853Z,100896.46
2023-05-03T11:04:08.624Z,100904.41
2023-05-03T11:14:14.016Z,100903.42
2023-05-03T11:24:19.453Z,100902.55
2023-05-03T11:34:46.397Z,100908.14
2023-05-03T11:45:30.676Z,100914.83
2023-05-03T11:56:21.139Z,100926.46
2023-05-03T12:06:53.116Z,100927.19
2023-05-03T12:17:00.434Z,100915.02
2023-05-03T12:27:08.609Z,100917.41
2023-05-03T12:38:03.039Z,100927.45
2023-05-03T12:48:11.242Z,100933.13
2023-05-03T13:08:33.853Z,100929.03
2023-05-03T13:19:22.635Z,100924.85
2023-05-03T13:29:29.922Z,100918.34
2023-05-03T13:39:33.619Z,100919.86
2023-05-03T13:49:40.045Z,100917.98
2023-05-03T13:59:44.526Z,100921.09
2023-05-03T14:09:48.321Z,100917.67
2023-05-03T14:19:53.510Z,100915.95
2023-05-03T14:29:57.499Z,100918.08
2023-05-03T14:40:02.422Z,100928.50
2023-05-03T14:50:07.800Z,100929.76
2023-05-03T15:00:14.593Z,100934.23
2023-05-03T15:10:18.385Z,100937.29
2023-05-03T15:20:23.310Z,100940.11
2023-05-03T15:30:27.074Z,100943.59
2023-05-03T15:40:34.126Z,100950.02
2023-05-03T15:50:37.790Z,100951.36
2023-05-03T16:00:43.245Z,100949.63
2023-05-03T16:10:47.046Z,100955.20
2023-05-03T16:20:51.391Z,100952.38
2023-05-03T16:30:55.160Z,100954.90
2023-05-03T16:41:00.300Z,100956.90
2023-05-03T16:51:05.587Z,100965.52
2023-05-03T17:01:13.008Z,100964.65
2023-05-03T17:12:06.758Z,100968.55
2023-05-03T17:22:12.628Z,100968.14
2023-05-03T17:32:16.947Z,100963.35
2023-05-03T17:42:26.092Z,100967.05
2023-05-03T17:52:29.818Z,100974.00
2023-05-03T18:02:34.495Z,100979.66
2023-05-03T18:12:41.307Z,100983.83
2023-05-03T18:22:45.068Z,100989.99
2023-05-03T18:32:49.013Z,100998.05
2023-05-03T18:42:53.129Z,101009.64
2023-05-03T18:52:58.652Z,101016.26
2023-05-03T19:03:02.884Z,101024.58
2023-05-03T19:13:07.731Z,101034.67
2023-05-03T19:23:11.583Z,101029.70
2023-05-03T19:33:25.919Z,101031.42
2023-05-03T19:43:31.529Z,101032.27
2023-05-03T19:53:56.597Z,101031.91
2023-05-03T20:04:00.499Z,101034.96
2023-05-03T20:14:05.954Z,101040.36
2023-05-03T20:24:52.453Z,101044.91
2023-05-03T20:35:00.334Z,101047.84
2023-05-03T20:45:04.178Z,101045.81
2023-05-03T20:56:08.623Z,101049.45
2023-05-03T21:06:14.629Z,101051.20
2023-05-03T21:16:18.452Z,101048.99
2023-05-03T21:26:24.332Z,101045.16
2023-05-03T21:36:28.313Z,101045.91
2023-05-03T21:54:10.686Z,101054.59
2023-05-03T22:04:14.370Z,101053.27
2023-05-03T22:14:18.351Z,101060.77
2023-05-03T22:24:22.144Z,101060.57
2023-05-03T22:34:27.566Z,101062.40
2023-05-03T22:44:32.848Z,101060.44
2023-05-03T22:54:36.429Z,101056.63
2023-05-03T23:04:42.053Z,101052.41
2023-05-03T23:14:46.417Z,101052.23
2023-05-03T23:24:51.635Z,101042.52
2023-05-03T23:34:55.508Z,101038.51
2023-05-03T23:44:59.135Z,101031.08
2023-05-03T23:55:03.969Z,101031.20
